Time;durP1;ratioP1;P1;durP2;ratioP2;P2;SDS_P1;SDS_P2;PMS_P1;PMS_P2;Temp;Humidity;BMP_temperature;BMP_pressure;BME280_temperature;BME280_humidity;BME280_pressure;Samples;Min_cycle;Max_cycle;Signal;HPM_P1;HPM_P2
2023/04/18 00:01:13;;;;;;;0.00;0.00;;;7.60;99.90;;;;;;5093747;28;20251;-60
2023/04/18 00:03:39;;;;;;;0.00;0.00;;;7.60;99.90;;;;;;5093310;28;20190;-59
2023/04/18 00:06:05;;;;;;;0.00;0.00;;;7.60;99.90;;;;;;5093211;28;20271;-60
2023/04/18 00:08:31;;;;;;;0.00;0.00;;;7.50;99.90;;;;;;5093635;28;20211;-60
2023/04/18 00:10:56;;;;;;;0.00;0.00;;;7.50;99.90;;;;;;5092867;28;20203;-60
2023/04/18 00:13:22;;;;;;;0.00;0.00;;;7.50;99.90;;;;;;5093534;28;20184;-60
2023/04/18 00:15:48;;;;;;;0.10;0.10;;;7.40;99.90;;;;;;5093353;28;20176;-59
2023/04/18 00:18:16;;;;;;;0.00;0.00;;;7.40;99.90;;;;;;5092758;28;20204;-60
2023/04/18 00:20:42;;;;;;;0.10;0.10;;;7.40;99.90;;;;;;5093126;28;20225;-60
2023/04/18 00:23:07;;;;;;;0.13;0.13;;;7.40;99.90;;;;;;5092508;28;20596;-60
2023/04/18 00:25:33;;;;;;;0.00;0.00;;;7.40;99.90;;;;;;5075092;28;20709;-60
2023/04/18 00:27:58;;;;;;;0.13;0.13;;;7.30;99.90;;;;;;5093127;28;20718;-60
2023/04/18 00:30:24;;;;;;;0.00;0.00;;;7.30;99.90;;;;;;5092769;28;20631;-60
2023/04/18 00:32:49;;;;;;;0.00;0.00;;;7.30;99.90;;;;;;5092369;28;20271;-60
2023/04/18 00:35:15;;;;;;;0.10;0.10;;;7.30;99.90;;;;;;5092492;28;20203;-60
2023/04/18 00:37:40;;;;;;;0.00;0.00;;;7.20;99.90;;;;;;5092871;28;20180;-60
2023/04/18 00:40:07;;;;;;;0.55;0.55;;;7.20;99.90;;;;;;5092511;28;20686;-60
2023/04/18 00:42:33;;;;;;;0.03;0.03;;;7.20;99.90;;;;;;5092750;28;20179;-60
2023/04/18 00:44:58;;;;;;;0.00;0.00;;;7.20;99.90;;;;;;5093276;28;20229;-60
2023/04/18 00:47:24;;;;;;;0.00;0.00;;;7.20;99.90;;;;;;5092612;28;20552;-60
2023/04/18 00:49:50;;;;;;;0.00;0.00;;;7.20;99.90;;;;;;5092811;28;20529;-60
2023/04/18 00:52:16;;;;;;;0.00;0.00;;;7.10;99.90;;;;;;5093130;28;20607;-60
2023/04/18 00:54:43;;;;;;;0.00;0.00;;;7.20;99.90;;;;;;5092707;28;20179;-59
2023/04/18 00:57:09;;;;;;;0.00;0.00;;;7.20;99.90;;;;;;5086400;28;20188;-59
2023/04/18 00:59:35;;;;;;;0.00;0.00;;;7.20;99.90;;;;;;5092517;28;20535;-59
2023/04/18 01:02:02;;;;;;;0.05;0.05;;;7.20;99.90;;;;;;5092264;28;20255;-59
2023/04/18 01:04:28;;;;;;;0.00;0.00;;;7.20;99.90;;;;;;5092472;28;20302;-59
2023/04/18 01:06:54;;;;;;;0.15;0.15;;;7.20;99.90;;;;;;5093046;28;20259;-59
2023/04/18 01:09:21;;;;;;;0.00;0.00;;;7.20;99.90;;;;;;5092799;28;20184;-59
2023/04/18 01:11:47;;;;;;;0.00;0.00;;;7.20;99.90;;;;;;5092472;28;20299;-59
2023/04/18 01:14:12;;;;;;;0.25;0.10;;;7.20;99.90;;;;;;5092838;28;20268;-58
2023/04/18 01:16:38;;;;;;;0.20;0.20;;;7.30;99.90;;;;;;5092408;28;20176;-59
2023/04/18 01:19:04;;;;;;;0.00;0.00;;;7.30;99.90;;;;;;5092399;28;20184;-59
2023/04/18 01:21:35;;;;;;;0.00;0.00;;;7.30;99.90;;;;;;5092280;28;20203;-58
2023/04/18 01:24:09;;;;;;;0.05;0.05;;;7.30;99.90;;;;;;5092361;28;20220;-59
2023/04/18 01:26:35;;;;;;;0.00;0.00;;;7.30;99.90;;;;;;5091823;28;20180;-59
2023/04/18 01:29:00;;;;;;;0.00;0.00;;;7.30;99.90;;;;;;5092475;28;20199;-59
2023/04/18 01:31:26;;;;;;;0.00;0.00;;;7.30;99.90;;;;;;5091190;28;20214;-59
2023/04/18 01:33:51;;;;;;;0.00;0.00;;;7.30;99.90;;;;;;5073985;28;20185;-59
2023/04/18 01:36:17;;;;;;;0.00;0.00;;;7.30;99.90;;;;;;5086669;28;20199;-59
2023/04/18 01:38:42;;;;;;;0.00;0.00;;;7.40;99.90;;;;;;5092065;28;20172;-59
2023/04/18 01:41:08;;;;;;;0.10;0.10;;;7.40;99.90;;;;;;5088441;28;20181;-59
2023/04/18 01:43:33;;;;;;;0.00;0.00;;;7.40;99.90;;;;;;5085279;28;20184;-59
2023/04/18 01:45:59;;;;;;;0.10;0.10;;;7.40;99.90;;;;;;5091763;28;20199;-59
2023/04/18 01:48:24;;;;;;;0.00;0.00;;;7.40;99.90;;;;;;5090962;28;20179;-58
2023/04/18 01:50:50;;;;;;;0.00;0.00;;;7.40;99.90;;;;;;5090977;28;20219;-59
2023/04/18 01:53:16;;;;;;;0.10;0.10;;;7.40;99.90;;;;;;5091766;28;20180;-59
2023/04/18 01:55:42;;;;;;;0.00;0.00;;;7.40;99.90;;;;;;5091523;28;20657;-59
2023/04/18 01:58:07;;;;;;;0.10;0.10;;;7.40;99.90;;;;;;5091125;28;20184;-59
2023/04/18 02:00:33;;;;;;;0.17;0.17;;;7.40;99.90;;;;;;5090919;28;20173;-59
2023/04/18 02:02:58;;;;;;;0.00;0.00;;;7.40;99.90;;;;;;5089588;28;20186;-59
2023/04/18 02:05:26;;;;;;;0.13;0.13;;;7.30;99.90;;;;;;5075616;28;20188;-59
2023/04/18 02:07:51;;;;;;;0.65;0.65;;;7.40;99.90;;;;;;5091706;28;20187;-59
2023/04/18 02:10:18;;;;;;;0.15;0.15;;;7.30;99.90;;;;;;5091307;28;20180;-58
2023/04/18 02:12:43;;;;;;;0.13;0.13;;;7.30;99.90;;;;;;5091370;28;20771;-58
2023/04/18 02:15:09;;;;;;;0.00;0.00;;;7.30;99.90;;;;;;5091188;28;20191;-58
2023/04/18 02:17:35;;;;;;;0.22;0.22;;;7.30;99.90;;;;;;5091090;28;20180;-59
2023/04/18 02:20:01;;;;;;;0.00;0.00;;;7.30;99.90;;;;;;5091068;28;20172;-59
2023/04/18 02:22:26;;;;;;;0.00;0.00;;;7.30;99.90;;;;;;5091042;28;20175;-59
2023/04/18 02:24:52;;;;;;;0.80;0.47;;;7.30;99.90;;;;;;5091379;28;20214;-58
2023/04/18 02:27:17;;;;;;;0.00;0.00;;;7.40;99.90;;;;;;5090939;28;20261;-58
2023/04/18 02:29:43;;;;;;;0.10;0.10;;;7.30;99.90;;;;;;5091396;28;20183;-58
2023/04/18 02:32:08;;;;;;;0.00;0.00;;;7.30;99.90;;;;;;5090539;28;20693;-58
2023/04/18 02:34:36;;;;;;;0.00;0.00;;;7.30;99.90;;;;;;5091205;28;20241;-58
2023/04/18 02:37:01;;;;;;;0.10;0.10;;;7.30;99.90;;;;;;5091057;28;20643;-59
2023/04/18 02:39:26;;;;;;;0.10;0.10;;;7.30;99.90;;;;;;5091094;28;20172;-59
2023/04/18 02:41:52;;;;;;;0.00;0.00;;;7.30;99.90;;;;;;5091306;28;20177;-59
2023/04/18 02:44:17;;;;;;;0.00;0.00;;;7.30;99.90;;;;;;5090580;28;20195;-59
2023/04/18 02:46:43;;;;;;;0.00;0.00;;;7.30;99.90;;;;;;5091240;28;20168;-58
2023/04/18 02:49:09;;;;;;;0.00;0.00;;;7.30;99.90;;;;;;5090689;28;20662;-59
2023/04/18 02:51:34;;;;;;;0.00;0.00;;;7.20;99.90;;;;;;5090937;28;20218;-59
2023/04/18 02:54:00;;;;;;;0.08;0.08;;;7.20;99.90;;;;;;5090991;28;20188;-59
2023/04/18 02:56:25;;;;;;;0.00;0.00;;;7.20;99.90;;;;;;5090416;28;20191;-59
2023/04/18 02:58:51;;;;;;;0.15;0.15;;;7.20;99.90;;;;;;5091260;28;20172;-59
2023/04/18 03:01:17;;;;;;;0.00;0.00;;;7.20;99.90;;;;;;5090639;28;20175;-59
2023/04/18 03:03:42;;;;;;;0.10;0.10;;;7.20;99.90;;;;;;5089993;28;20176;-59
2023/04/18 03:06:08;;;;;;;0.00;0.00;;;7.10;99.90;;;;;;5082367;28;20267;-60
2023/04/18 03:08:34;;;;;;;0.00;0.00;;;7.10;99.90;;;;;;5090689;28;20215;-59
2023/04/18 03:10:59;;;;;;;0.00;0.00;;;7.10;99.90;;;;;;5090290;28;20216;-59
2023/04/18 03:13:25;;;;;;;0.40;0.40;;;7.10;99.90;;;;;;5090039;28;20202;-60
2023/04/18 03:15:51;;;;;;;0.00;0.00;;;7.10;99.90;;;;;;5090294;28;20639;-60
2023/04/18 03:18:16;;;;;;;0.03;0.03;;;7.00;99.90;;;;;;5090337;28;20246;-60
2023/04/18 03:20:42;;;;;;;0.00;0.00;;;7.00;99.90;;;;;;5090890;28;20187;-59
2023/04/18 03:23:07;;;;;;;0.00;0.00;;;7.00;99.90;;;;;;5089873;28;20544;-60
2023/04/18 03:25:33;;;;;;;0.00;0.00;;;6.90;99.90;;;;;;5089909;28;20828;-59
2023/04/18 03:27:59;;;;;;;0.00;0.00;;;6.90;99.90;;;;;;5089857;28;20582;-60
2023/04/18 03:30:25;;;;;;;0.00;0.00;;;6.80;99.90;;;;;;5089498;28;20172;-60
2023/04/18 03:32:51;;;;;;;0.03;0.03;;;6.80;99.90;;;;;;5090635;28;20188;-60
2023/04/18 03:35:17;;;;;;;0.00;0.00;;;6.70;99.90;;;;;;5089885;28;20175;-61
2023/04/18 03:37:43;;;;;;;0.00;0.00;;;6.60;99.90;;;;;;5072112;28;20183;-59
2023/04/18 03:40:09;;;;;;;0.10;0.10;;;6.60;99.90;;;;;;5089954;28;20666;-59
2023/04/18 03:42:35;;;;;;;0.13;0.13;;;6.50;99.90;;;;;;5088991;28;20190;-59
2023/04/18 03:45:00;;;;;;;0.00;0.00;;;6.50;99.90;;;;;;5090521;28;20694;-60
2023/04/18 03:47:27;;;;;;;0.00;0.00;;;6.50;99.90;;;;;;5089380;28;20264;-60
2023/04/18 03:49:53;;;;;;;0.00;0.00;;;6.40;99.90;;;;;;5090577;28;20176;-61
2023/04/18 03:52:19;;;;;;;0.45;0.15;;;6.40;99.90;;;;;;5089641;28;20255;-58
2023/04/18 03:54:44;;;;;;;0.15;0.15;;;6.30;99.90;;;;;;5090141;28;20207;-60
2023/04/18 03:57:10;;;;;;;0.00;0.00;;;6.30;99.90;;;;;;5093656;28;20256;-58
2023/04/18 03:59:36;;;;;;;0.25;0.25;;;6.30;99.90;;;;;;5093698;28;20665;-59
2023/04/18 04:02:01;;;;;;;0.03;0.03;;;6.30;99.90;;;;;;5093303;28;20725;-58
2023/04/18 04:04:27;;;;;;;0.05;0.05;;;6.20;99.90;;;;;;5082554;28;20628;-58
2023/04/18 04:06:52;;;;;;;0.00;0.00;;;6.20;99.90;;;;;;5092511;28;20325;-58
2023/04/18 04:09:18;;;;;;;0.10;0.10;;;6.20;99.90;;;;;;5092869;28;20286;-58
2023/04/18 04:11:45;;;;;;;0.13;0.13;;;6.20;99.90;;;;;;5092684;28;20257;-58
2023/04/18 04:14:10;;;;;;;0.10;0.10;;;6.10;99.90;;;;;;5093801;28;20188;-59
2023/04/18 04:16:36;;;;;;;0.00;0.00;;;6.10;99.90;;;;;;5092163;28;20647;-58
2023/04/18 04:19:02;;;;;;;0.00;0.00;;;6.10;99.90;;;;;;5092398;28;20214;-58
2023/04/18 04:21:29;;;;;;;0.17;0.17;;;6.10;99.90;;;;;;5093212;28;20176;-58
2023/04/18 04:23:55;;;;;;;0.00;0.00;;;6.10;99.90;;;;;;5093490;28;20184;-58
2023/04/18 04:26:22;;;;;;;0.00;0.00;;;6.10;99.90;;;;;;5093343;28;20519;-58
2023/04/18 04:28:52;;;;;;;0.00;0.00;;;6.10;99.90;;;;;;5093294;28;20708;-58
2023/04/18 04:31:18;;;;;;;0.10;0.10;;;6.00;99.90;;;;;;5093327;28;20273;-58
2023/04/18 04:33:43;;;;;;;0.00;0.00;;;6.00;99.90;;;;;;5075289;28;20172;-58
2023/04/18 04:36:09;;;;;;;0.20;0.20;;;6.00;99.90;;;;;;5093089;28;20586;-58
2023/04/18 04:38:39;;;;;;;0.35;0.35;;;6.00;99.90;;;;;;5093361;28;20173;-58
2023/04/18 04:41:08;;;;;;;0.10;0.10;;;6.00;99.90;;;;;;5093289;28;20180;-58
2023/04/18 04:43:34;;;;;;;0.10;0.10;;;5.90;99.90;;;;;;5093331;28;20198;-58
2023/04/18 04:46:02;;;;;;;0.10;0.10;;;5.90;99.90;;;;;;5093205;28;20248;-58
2023/04/18 04:48:28;;;;;;;0.08;0.08;;;5.90;99.90;;;;;;5093325;28;20183;-58
2023/04/18 04:50:55;;;;;;;0.00;0.00;;;5.90;99.90;;;;;;5075356;28;20188;-58
2023/04/18 04:53:22;;;;;;;0.00;0.00;;;6.00;99.90;;;;;;5092859;28;20180;-58
2023/04/18 04:55:47;;;;;;;1.75;0.35;;;6.00;99.90;;;;;;5093228;28;20177;-58
2023/04/18 04:58:13;;;;;;;0.17;0.17;;;6.00;99.90;;;;;;5093100;28;20203;-58
2023/04/18 05:00:38;;;;;;;0.00;0.00;;;6.00;99.90;;;;;;5093273;28;20199;-58
2023/04/18 05:03:04;;;;;;;0.00;0.00;;;6.00;99.90;;;;;;5093074;28;20519;-58
2023/04/18 05:05:30;;;;;;;0.10;0.10;;;6.00;99.90;;;;;;5092934;28;20263;-58
2023/04/18 05:07:55;;;;;;;0.00;0.00;;;6.00;99.90;;;;;;5091993;28;20204;-58
2023/04/18 05:10:21;;;;;;;0.05;0.05;;;6.00;99.90;;;;;;5092742;28;20187;-58
2023/04/18 05:12:46;;;;;;;0.05;0.05;;;6.10;99.90;;;;;;5092639;28;20187;-58
2023/04/18 05:15:14;;;;;;;0.00;0.00;;;6.10;99.90;;;;;;5092401;28;20213;-58
2023/04/18 05:17:40;;;;;;;0.00;0.00;;;6.10;99.90;;;;;;5087418;28;20193;-58
2023/04/18 05:20:06;;;;;;;0.00;0.00;;;6.10;99.90;;;;;;5072149;28;20226;-58
2023/04/18 05:22:31;;;;;;;0.00;0.00;;;6.20;99.90;;;;;;5071832;28;20173;-58
2023/04/18 05:24:57;;;;;;;0.00;0.00;;;6.20;99.90;;;;;;5072195;28;20204;-58
2023/04/18 05:27:23;;;;;;;0.00;0.00;;;6.20;99.90;;;;;;5071747;28;20277;-58
2023/04/18 05:29:49;;;;;;;0.15;0.15;;;6.20;99.90;;;;;;5054107;28;20184;-58
2023/04/18 05:32:15;;;;;;;0.00;0.00;;;6.30;99.90;;;;;;5071752;28;20698;-58
2023/04/18 05:34:41;;;;;;;0.00;0.00;;;6.30;99.90;;;;;;5072088;28;20666;-58
2023/04/18 05:37:06;;;;;;;0.15;0.15;;;6.30;99.90;;;;;;5071561;28;20526;-58
2023/04/18 05:39:32;;;;;;;0.22;0.22;;;6.30;99.90;;;;;;5071830;28;20314;-58
2023/04/18 05:41:57;;;;;;;0.00;0.00;;;6.40;99.90;;;;;;5071620;28;20189;-58
2023/04/18 05:44:23;;;;;;;0.00;0.00;;;6.40;99.90;;;;;;5071480;28;20182;-58
2023/04/18 05:46:50;;;;;;;0.17;0.17;;;6.40;99.90;;;;;;5071742;28;20215;-58
2023/04/18 05:49:19;;;;;;;0.00;0.00;;;6.50;99.90;;;;;;5071516;28;20684;-58
2023/04/18 05:51:45;;;;;;;0.20;0.20;;;6.50;99.90;;;;;;5071516;28;20332;-58
2023/04/18 05:54:11;;;;;;;0.35;0.35;;;6.50;99.90;;;;;;5071203;28;20577;-58
2023/04/18 05:56:36;;;;;;;0.00;0.00;;;6.60;99.90;;;;;;5071586;28;20196;-58
2023/04/18 05:59:02;;;;;;;0.00;0.00;;;6.60;99.90;;;;;;5071693;28;20208;-58
2023/04/18 06:01:27;;;;;;;0.10;0.10;;;6.70;99.90;;;;;;5071523;28;20180;-58
2023/04/18 06:03:53;;;;;;;0.22;0.22;;;6.70;99.90;;;;;;5071226;28;20184;-58
2023/04/18 06:06:19;;;;;;;0.00;0.00;;;6.80;99.90;;;;;;5071235;28;20602;-58
2023/04/18 06:08:45;;;;;;;0.10;0.10;;;6.80;99.90;;;;;;5070996;28;20208;-58
2023/04/18 06:11:10;;;;;;;0.10;0.10;;;6.90;99.90;;;;;;5070848;28;20208;-58
2023/04/18 06:13:36;;;;;;;0.00;0.00;;;6.90;99.90;;;;;;5071158;28;20524;-58
2023/04/18 06:16:02;;;;;;;0.00;0.00;;;6.90;99.90;;;;;;5071529;28;20215;-58
2023/04/18 06:18:27;;;;;;;0.00;0.00;;;7.00;99.90;;;;;;5075781;28;20184;-58
2023/04/18 06:20:53;;;;;;;0.00;0.00;;;7.00;99.90;;;;;;5071361;28;20176;-58
2023/04/18 06:23:19;;;;;;;0.00;0.00;;;7.10;99.90;;;;;;5071173;28;20627;-57
2023/04/18 06:25:45;;;;;;;0.00;0.00;;;7.10;99.90;;;;;;5071249;28;20187;-57
2023/04/18 06:28:10;;;;;;;0.00;0.00;;;7.20;99.90;;;;;;5070840;28;20224;-57
2023/04/18 06:30:36;;;;;;;0.00;0.00;;;7.20;99.90;;;;;;5071083;28;20197;-57
2023/04/18 06:33:01;;;;;;;0.10;0.10;;;7.30;99.90;;;;;;5071386;28;20189;-57
2023/04/18 06:35:30;;;;;;;0.00;0.00;;;7.30;99.90;;;;;;5071093;28;20195;-57
2023/04/18 06:37:56;;;;;;;0.00;0.00;;;7.40;99.90;;;;;;5071069;28;20173;-57
2023/04/18 06:40:22;;;;;;;0.10;0.10;;;7.50;99.90;;;;;;5071189;28;20223;-58
2023/04/18 06:42:47;;;;;;;0.00;0.00;;;7.60;99.90;;;;;;5071222;28;20177;-57
2023/04/18 06:45:13;;;;;;;0.00;0.00;;;7.80;99.90;;;;;;5071041;28;20180;-59
2023/04/18 06:47:39;;;;;;;0.08;0.08;;;7.90;99.90;;;;;;5070832;28;20173;-58
2023/04/18 06:50:07;;;;;;;0.17;0.17;;;8.10;99.90;;;;;;5070697;28;20268;-58
2023/04/18 06:52:34;;;;;;;0.00;0.00;;;8.10;99.90;;;;;;5070577;28;20667;-59
2023/04/18 06:54:59;;;;;;;0.00;0.00;;;8.10;99.90;;;;;;5070856;28;20204;-59
2023/04/18 06:57:25;;;;;;;0.00;0.00;;;8.10;99.90;;;;;;5070737;28;20263;-59
2023/04/18 06:59:50;;;;;;;0.00;0.00;;;8.30;99.90;;;;;;5071064;28;20173;-59
2023/04/18 07:02:16;;;;;;;0.00;0.00;;;8.40;99.90;;;;;;5070697;28;20180;-59
2023/04/18 07:04:42;;;;;;;0.00;0.00;;;8.40;99.90;;;;;;5071193;28;20216;-59
2023/04/18 07:07:07;;;;;;;0.00;0.00;;;8.40;99.90;;;;;;5071108;28;20529;-59
2023/04/18 07:09:33;;;;;;;0.00;0.00;;;8.50;99.90;;;;;;5071203;28;20185;-59
2023/04/18 07:11:58;;;;;;;0.00;0.00;;;8.50;99.90;;;;;;5071183;28;20327;-59
2023/04/18 07:14:24;;;;;;;0.20;0.20;;;8.60;99.90;;;;;;5070994;28;20195;-58
2023/04/18 07:16:50;;;;;;;0.00;0.00;;;8.60;99.90;;;;;;5071593;28;20177;-58
2023/04/18 07:19:16;;;;;;;0.00;0.00;;;8.70;99.90;;;;;;5074901;28;20275;-58
2023/04/18 07:21:43;;;;;;;0.00;0.00;;;8.70;99.90;;;;;;5070857;28;20176;-58
2023/04/18 07:24:09;;;;;;;0.10;0.10;;;8.70;99.90;;;;;;5089614;28;20194;-58
2023/04/18 07:26:36;;;;;;;0.00;0.00;;;8.70;99.90;;;;;;5091217;28;20267;-58
2023/04/18 07:29:01;;;;;;;0.20;0.20;;;8.70;99.90;;;;;;5091208;28;20709;-58
2023/04/18 07:31:27;;;;;;;0.00;0.00;;;8.60;99.90;;;;;;5094104;28;20215;-58
2023/04/18 07:33:53;;;;;;;0.00;0.00;;;8.60;99.90;;;;;;5077281;28;20175;-58
2023/04/18 07:36:18;;;;;;;0.00;0.00;;;8.60;99.90;;;;;;5095119;28;20183;-58
2023/04/18 07:38:45;;;;;;;0.00;0.00;;;8.60;99.90;;;;;;5094920;28;20203;-58
2023/04/18 07:41:11;;;;;;;0.00;0.00;;;8.60;99.90;;;;;;5095102;28;20638;-58
2023/04/18 07:43:37;;;;;;;0.00;0.00;;;8.70;99.90;;;;;;5094998;28;20550;-58
2023/04/18 07:46:03;;;;;;;0.00;0.00;;;8.80;99.90;;;;;;5094697;28;20547;-59
2023/04/18 07:48:29;;;;;;;0.00;0.00;;;9.00;99.90;;;;;;5094722;28;20173;-58
2023/04/18 07:50:55;;;;;;;0.00;0.00;;;9.10;99.90;;;;;;5094881;28;20692;-59
2023/04/18 07:53:20;;;;;;;0.00;0.00;;;9.20;99.90;;;;;;5094517;28;20266;-58
2023/04/18 07:55:46;;;;;;;0.00;0.00;;;9.40;99.90;;;;;;5094602;28;20250;-58
2023/04/18 07:58:12;;;;;;;0.00;0.00;;;9.50;99.90;;;;;;5094614;28;20230;-58
2023/04/18 08:00:38;;;;;;;0.15;0.15;;;9.50;99.90;;;;;;5094815;28;20220;-58
2023/04/18 08:03:06;;;;;;;0.00;0.00;;;9.50;99.90;;;;;;5094416;28;20180;-59
2023/04/18 08:05:31;;;;;;;0.00;0.00;;;9.50;99.90;;;;;;5094488;28;20184;-58
2023/04/18 08:07:57;;;;;;;0.00;0.00;;;9.60;99.90;;;;;;5094577;28;20176;-58
2023/04/18 08:10:22;;;;;;;0.00;0.00;;;9.70;99.90;;;;;;5094340;28;20176;-59
2023/04/18 08:12:48;;;;;;;0.10;0.10;;;9.80;99.90;;;;;;5076222;28;20188;-58
2023/04/18 08:15:13;;;;;;;0.00;0.00;;;9.80;99.90;;;;;;5094273;28;20169;-58
2023/04/18 08:17:41;;;;;;;0.00;0.00;;;9.90;99.90;;;;;;5094250;28;20183;-58
2023/04/18 08:20:07;;;;;;;0.00;0.00;;;9.90;99.90;;;;;;5079262;28;20180;-58
2023/04/18 08:22:32;;;;;;;0.00;0.00;;;10.10;99.90;;;;;;5074010;28;20180;-59
2023/04/18 08:24:59;;;;;;;0.00;0.00;;;10.20;99.90;;;;;;5089095;28;20180;-59
2023/04/18 08:27:25;;;;;;;0.10;0.10;;;10.50;99.90;;;;;;5093617;28;20227;-58
2023/04/18 08:29:51;;;;;;;0.05;0.05;;;10.60;99.90;;;;;;5093966;28;20188;-58
2023/04/18 08:32:16;;;;;;;0.10;0.10;;;10.80;99.90;;;;;;5093850;28;20223;-59
2023/04/18 08:34:42;;;;;;;0.00;0.00;;;10.90;99.90;;;;;;5094130;28;20187;-58
2023/04/18 08:37:08;;;;;;;0.10;0.10;;;11.00;99.90;;;;;;5094000;28;20203;-59
2023/04/18 08:39:34;;;;;;;0.25;0.25;;;11.10;99.90;;;;;;5093972;28;20519;-58
2023/04/18 08:42:00;;;;;;;0.00;0.00;;;11.20;99.90;;;;;;5092524;28;20186;-59
2023/04/18 08:44:28;;;;;;;0.00;0.00;;;11.40;99.90;;;;;;5093643;28;20623;-57
2023/04/18 08:46:55;;;;;;;0.00;0.00;;;11.70;99.90;;;;;;5093724;28;20186;-58
2023/04/18 08:49:21;;;;;;;0.10;0.10;;;12.10;99.90;;;;;;5093580;28;20259;-58
2023/04/18 08:51:49;;;;;;;0.00;0.00;;;12.30;99.90;;;;;;5093585;28;20243;-58
2023/04/18 08:54:17;;;;;;;0.10;0.10;;;12.30;99.90;;;;;;5093563;28;20187;-58
2023/04/18 08:56:43;;;;;;;0.00;0.00;;;12.60;99.90;;;;;;5093551;28;20288;-58
2023/04/18 08:59:10;;;;;;;0.00;0.00;;;12.80;99.90;;;;;;5093444;28;20259;-58
2023/04/18 09:01:48;;;;;;;0.00;0.00;;;12.90;99.90;;;;;;5093625;28;20187;-58
2023/04/18 09:04:36;;;;;;;0.22;0.22;;;13.00;99.90;;;;;;5093293;28;20179;-58
2023/04/18 09:07:08;;;;;;;0.08;0.08;;;12.90;99.90;;;;;;5093374;28;20168;-58
2023/04/18 09:09:47;;;;;;;0.00;0.00;;;12.70;99.90;;;;;;5093464;28;20667;-58
2023/04/18 09:12:16;;;;;;;0.00;0.00;;;12.60;99.90;;;;;;5093109;28;20207;-58
2023/04/18 09:14:47;;;;;;;0.00;0.00;;;12.70;99.90;;;;;;5093345;28;20212;-58
2023/04/18 09:17:17;;;;;;;0.00;0.00;;;12.70;99.90;;;;;;5092917;28;20204;-59
2023/04/18 09:19:49;;;;;;;0.00;0.00;;;12.80;99.90;;;;;;5092983;28;20188;-59
2023/04/18 09:22:15;;;;;;;0.05;0.05;;;12.70;99.90;;;;;;5092871;28;20180;-59
2023/04/18 09:24:52;;;;;;;0.00;0.00;;;12.70;99.90;;;;;;5092992;28;20172;-59
2023/04/18 09:27:21;;;;;;;0.10;0.10;;;12.90;99.90;;;;;;5087389;28;20239;-59
2023/04/18 09:29:53;;;;;;;0.00;0.00;;;13.30;99.90;;;;;;5072573;28;20181;-59
2023/04/18 09:32:23;;;;;;;0.15;0.13;;;13.60;99.90;;;;;;5085288;28;20234;-59
2023/04/18 09:34:53;;;;;;;0.00;0.00;;;14.10;99.90;;;;;;5092923;28;20172;-57
2023/04/18 09:37:19;;;;;;;0.00;0.00;;;14.30;99.90;;;;;;5092552;28;20669;-57
2023/04/18 09:39:45;;;;;;;0.38;0.38;;;14.40;99.70;;;;;;5092626;28;20251;-58
2023/04/18 09:42:11;;;;;;;0.00;0.00;;;14.40;99.30;;;;;;5092454;28;20330;-57
2023/04/18 09:44:38;;;;;;;0.00;0.00;;;14.30;99.40;;;;;;5092526;28;20203;-57
2023/04/18 09:47:06;;;;;;;0.00;0.00;;;14.20;99.40;;;;;;5092407;28;20641;-58
2023/04/18 09:49:32;;;;;;;0.00;0.00;;;14.10;99.60;;;;;;5092536;28;20177;-58
2023/04/18 09:51:59;;;;;;;0.00;0.00;;;14.00;99.80;;;;;;5092369;28;20268;-59
2023/04/18 09:54:27;;;;;;;0.00;0.00;;;13.70;99.80;;;;;;5091907;28;20183;-58
2023/04/18 09:56:55;;;;;;;0.00;0.00;;;13.40;99.90;;;;;;5092328;28;20533;-58
2023/04/18 09:59:48;;;;;;;0.00;0.00;;;13.20;99.90;;;;;;5092266;28;20546;-58
2023/04/18 10:02:21;;;;;;;0.00;0.00;;;13.30;99.90;;;;;;5092085;28;20176;-58
2023/04/18 10:04:50;;;;;;;0.00;0.00;;;13.40;99.90;;;;;;5092163;28;20187;-58
2023/04/18 10:07:16;;;;;;;0.00;0.00;;;13.50;99.90;;;;;;5091370;28;20184;-58
2023/04/18 10:09:45;;;;;;;0.00;0.00;;;14.00;99.90;;;;;;5092091;28;20180;-58
2023/04/18 10:12:11;;;;;;;0.00;0.00;;;14.50;99.90;;;;;;5092035;28;20348;-58
2023/04/18 10:14:41;;;;;;;0.00;0.00;;;15.00;99.80;;;;;;5091879;28;20571;-58
2023/04/18 10:17:08;;;;;;;0.00;0.00;;;15.30;98.90;;;;;;5091743;28;20178;-58
2023/04/18 10:19:33;;;;;;;0.00;0.00;;;15.30;98.20;;;;;;5091942;28;20208;-58
2023/04/18 10:22:00;;;;;;;0.10;0.10;;;15.20;98.20;;;;;;5091997;28;20206;-58
2023/04/18 10:24:48;;;;;;;0.00;0.00;;;15.10;98.10;;;;;;5091691;28;20182;-58
2023/04/18 10:27:17;;;;;;;0.00;0.00;;;14.80;98.40;;;;;;5081896;28;20228;-58
2023/04/18 10:29:53;;;;;;;0.00;0.00;;;14.70;98.50;;;;;;5071496;28;20181;-58
2023/04/18 10:32:21;;;;;;;0.40;0.32;;;14.70;98.60;;;;;;5071422;28;20220;-58
2023/04/18 10:34:48;;;;;;;0.00;0.00;;;14.50;98.60;;;;;;5071451;28;20207;-58
2023/04/18 10:37:14;;;;;;;0.00;0.00;;;14.40;98.70;;;;;;5071433;28;20643;-58
2023/04/18 10:39:55;;;;;;;0.10;0.10;;;14.30;99.10;;;;;;5071524;28;20257;-58
2023/04/18 10:42:59;;;;;;;0.00;0.00;;;14.40;99.40;;;;;;5071277;28;20180;-58
2023/04/18 10:45:29;;;;;;;0.20;0.20;;;14.40;99.40;;;;;;4989708;28;20171;-58
2023/04/18 10:48:28;;;;;;;0.00;0.00;;;14.50;99.60;;;;;;4989856;28;20598;-58
2023/04/18 10:51:13;;;;;;;0.00;0.00;;;14.50;99.60;;;;;;5048523;28;20204;-58
2023/04/18 10:53:52;;;;;;;0.00;0.00;;;14.60;99.90;;;;;;5071389;28;20215;-58
2023/04/18 10:56:18;;;;;;;0.20;0.20;;;14.70;99.50;;;;;;5071300;28;20172;-59
2023/04/18 10:58:49;;;;;;;0.00;0.00;;;14.70;99.30;;;;;;5071333;28;20187;-58
2023/04/18 11:01:21;;;;;;;0.00;0.00;;;14.70;99.20;;;;;;5071324;28;20176;-58
2023/04/18 11:03:46;;;;;;;0.00;0.00;;;14.90;99.40;;;;;;5071207;28;20211;-58
2023/04/18 11:06:12;;;;;;;0.00;0.00;;;15.00;99.30;;;;;;5072959;28;20173;-58
2023/04/18 11:08:37;;;;;;;0.00;0.00;;;15.20;99.10;;;;;;5075302;28;20172;-58
2023/04/18 11:11:07;;;;;;;0.00;0.00;;;15.20;98.90;;;;;;5075047;28;20239;-58
2023/04/18 11:13:33;;;;;;;0.00;0.00;;;15.10;99.20;;;;;;5075384;28;20237;-59
2023/04/18 11:15:58;;;;;;;0.10;0.10;;;15.10;99.20;;;;;;5075229;28;20252;-58
2023/04/18 11:18:24;;;;;;;0.00;0.00;;;15.00;98.70;;;;;;5088733;28;20692;-58
2023/04/18 11:20:50;;;;;;;0.00;0.00;;;14.90;99.00;;;;;;5095425;28;20668;-58
2023/04/18 11:23:20;;;;;;;0.00;0.00;;;15.00;99.40;;;;;;5095148;28;20160;-59
2023/04/18 11:25:50;;;;;;;0.00;0.00;;;15.00;99.30;;;;;;5095314;28;20233;-59
2023/04/18 11:28:19;;;;;;;0.00;0.00;;;15.00;99.20;;;;;;5076559;28;20251;-58
2023/04/18 11:30:45;;;;;;;0.00;0.00;;;15.00;98.90;;;;;;5074711;28;20670;-58
2023/04/18 11:33:12;;;;;;;0.35;0.35;;;15.10;99.10;;;;;;5074916;28;20189;-58
2023/04/18 11:35:42;;;;;;;0.00;0.00;;;15.20;98.60;;;;;;5074880;28;20169;-58
2023/04/18 11:38:09;;;;;;;0.00;0.00;;;15.40;98.70;;;;;;5074918;28;20176;-58
2023/04/18 11:40:36;;;;;;;0.00;0.00;;;15.70;98.10;;;;;;5074781;28;20180;-59
2023/04/18 11:43:05;;;;;;;0.00;0.00;;;15.70;98.20;;;;;;5074891;28;20177;-58
2023/04/18 11:45:31;;;;;;;0.00;0.00;;;15.60;97.50;;;;;;5074638;28;20271;-58
2023/04/18 11:47:58;;;;;;;0.10;0.10;;;15.50;97.80;;;;;;5074697;28;20173;-58
2023/04/18 11:50:25;;;;;;;0.10;0.10;;;15.30;97.90;;;;;;5074497;28;20242;-58
2023/04/18 11:52:53;;;;;;;0.00;0.00;;;15.10;98.10;;;;;;5074324;28;20251;-58
2023/04/18 11:55:21;;;;;;;0.00;0.00;;;14.90;98.20;;;;;;5074461;28;20168;-58
2023/04/18 11:57:57;;;;;;;0.00;0.00;;;14.80;98.50;;;;;;5074346;28;20199;-58
2023/04/18 12:00:37;;;;;;;0.00;0.00;;;14.70;98.70;;;;;;5074176;28;20577;-58
2023/04/18 12:03:14;;;;;;;0.00;0.00;;;14.70;98.60;;;;;;5074136;28;20188;-57
2023/04/18 12:05:40;;;;;;;0.13;0.13;;;14.70;98.50;;;;;;5074447;28;20238;-58
2023/04/18 12:08:17;;;;;;;0.00;0.00;;;14.50;99.00;;;;;;5074087;28;20177;-58
2023/04/18 12:10:47;;;;;;;0.00;0.00;;;14.50;99.30;;;;;;5074125;28;20211;-57
2023/04/18 12:13:13;;;;;;;0.00;0.00;;;14.60;99.40;;;;;;5074050;28;20595;-58
2023/04/18 12:15:41;;;;;;;0.00;0.00;;;14.60;99.20;;;;;;5073857;28;20215;-58
2023/04/18 12:18:09;;;;;;;0.00;0.00;;;14.70;99.20;;;;;;5085139;28;20180;-58
2023/04/18 12:20:36;;;;;;;0.00;0.00;;;14.90;99.20;;;;;;5094365;28;20178;-58
2023/04/18 12:23:03;;;;;;;0.05;0.05;;;15.00;98.40;;;;;;5094255;28;20626;-58
2023/04/18 12:25:29;;;;;;;0.00;0.00;;;14.90;98.60;;;;;;5094263;28;20614;-58
2023/04/18 12:27:57;;;;;;;0.00;0.00;;;15.00;98.80;;;;;;5088281;28;20227;-58
2023/04/18 12:30:25;;;;;;;0.00;0.00;;;15.30;99.10;;;;;;5075626;28;20582;-59
2023/04/18 12:32:53;;;;;;;0.00;0.00;;;15.50;98.30;;;;;;5073938;28;20257;-58
2023/04/18 12:35:20;;;;;;;0.00;0.00;;;15.60;98.50;;;;;;5073742;28;20177;-58
2023/04/18 12:37:52;;;;;;;0.00;0.00;;;15.70;98.30;;;;;;5073692;28;20303;-58
2023/04/18 12:40:19;;;;;;;0.00;0.00;;;15.80;97.60;;;;;;5073637;28;20196;-58
2023/04/18 12:42:46;;;;;;;0.00;0.00;;;15.90;98.20;;;;;;5073571;28;20180;-58
2023/04/18 12:45:12;;;;;;;0.00;0.00;;;15.90;97.30;;;;;;5073474;28;20185;-59
2023/04/18 12:47:38;;;;;;;0.00;0.00;;;15.80;97.00;;;;;;5073592;28;20311;-58
2023/04/18 12:50:06;;;;;;;0.00;0.00;;;15.70;97.20;;;;;;5073433;28;20305;-59
2023/04/18 12:52:31;;;;;;;0.00;0.00;;;15.60;97.40;;;;;;5073493;28;20220;-61